createdAt,value
2018-12-23T00:00:25.447Z,49.92
2018-12-23T00:00:57.037Z,49.97
2018-12-23T00:01:28.630Z,50.05
2018-12-23T00:02:00.231Z,50.04
2018-12-23T00:02:31.844Z,50.02
2018-12-23T00:03:03.438Z,50.08
2018-12-23T00:03:35.048Z,50.19
2018-12-23T00:04:06.675Z,50.27
2018-12-23T00:04:38.275Z,50.44
2018-12-23T00:05:11.614Z,50.44
2018-12-23T00:05:41.518Z,50.54
2018-12-23T00:06:13.114Z,50.50
2018-12-23T00:06:44.705Z,50.53
2018-12-23T00:07:16.307Z,50.58
2018-12-23T00:07:47.927Z,50.61
2018-12-23T00:08:19.623Z,50.64
2018-12-23T00:08:51.181Z,50.61
2018-12-23T00:09:22.801Z,50.68
2018-12-23T00:09:54.406Z,50.72
2018-12-23T00:10:26.074Z,50.80
2018-12-23T00:10:57.685Z,50.81
2018-12-23T00:11:29.286Z,50.91
2018-12-23T00:12:00.898Z,50.99
2018-12-23T00:12:32.494Z,50.95
2018-12-23T00:13:04.100Z,51.04
2018-12-23T00:13:35.698Z,51.06
2018-12-23T00:14:07.317Z,51.07
2018-12-23T00:14:38.924Z,51.07
2018-12-23T00:15:10.537Z,51.08
2018-12-23T00:15:42.148Z,51.11
2018-12-23T00:16:13.741Z,51.14
2018-12-23T00:16:45.326Z,51.19
2018-12-23T00:17:16.922Z,51.32
2018-12-23T00:17:48.527Z,51.32
2018-12-23T00:18:20.117Z,51.20
2018-12-23T00:18:51.709Z,51.17
2018-12-23T00:19:23.340Z,51.13
2018-12-23T00:19:54.934Z,51.22
2018-12-23T00:20:26.586Z,51.26
2018-12-23T00:20:59.440Z,51.41
2018-12-23T00:21:29.849Z,51.42
2018-12-23T00:22:01.459Z,51.55
2018-12-23T00:22:33.061Z,51.58
2018-12-23T00:23:04.673Z,51.62
2018-12-23T00:23:36.276Z,51.71
2018-12-23T00:24:07.932Z,51.75
2018-12-23T00:24:39.898Z,51.68
2018-12-23T00:25:11.515Z,51.75
2018-12-23T00:25:43.124Z,51.80
2018-12-23T00:26:14.719Z,51.71
2018-12-23T00:26:46.332Z,51.89
2018-12-23T00:27:17.943Z,51.87
2018-12-23T00:27:49.528Z,51.92
2018-12-23T00:28:21.117Z,51.92
2018-12-23T00:28:52.725Z,51.93
2018-12-23T00:29:24.336Z,51.87
2018-12-23T00:29:55.934Z,51.88
2018-12-23T00:30:27.540Z,51.92
2018-12-23T00:30:59.149Z,52.01
2018-12-23T00:31:30.751Z,51.85
2018-12-23T00:32:02.369Z,52.00
2018-12-23T00:32:33.975Z,51.97
2018-12-23T00:33:05.598Z,51.97
2018-12-23T00:33:37.180Z,52.05
2018-12-23T00:34:08.788Z,52.02
2018-12-23T00:34:40.410Z,52.10
2018-12-23T00:35:20.065Z,51.99
2018-12-23T00:35:43.665Z,52.09
2018-12-23T00:36:15.257Z,52.12
2018-12-23T00:36:46.850Z,52.17
2018-12-23T00:37:18.456Z,52.14
2018-12-23T00:37:50.041Z,52.05
2018-12-23T00:38:21.639Z,52.21
2018-12-23T00:38:53.244Z,52.15
2018-12-23T00:39:24.856Z,52.14
2018-12-23T00:39:56.450Z,52.18
2018-12-23T00:40:28.055Z,52.30
2018-12-23T00:40:59.651Z,52.40
2018-12-23T00:41:31.245Z,52.29
2018-12-23T00:42:02.850Z,52.29
2018-12-23T00:42:34.443Z,52.29
2018-12-23T00:43:06.043Z,52.36
2018-12-23T00:43:37.657Z,52.38
2018-12-23T00:44:09.254Z,52.44
2018-12-23T00:44:40.867Z,52.47
2018-12-23T00:45:12.462Z,52.55
2018-12-23T00:45:44.058Z,52.54
2018-12-23T00:46:15.668Z,52.64
2018-12-23T00:46:47.272Z,52.68
2018-12-23T00:47:18.892Z,52.63
2018-12-23T00:47:50.491Z,52.72
2018-12-23T00:48:22.086Z,52.78
2018-12-23T00:48:53.677Z,52.84
2018-12-23T00:49:25.274Z,52.93
2018-12-23T00:49:56.865Z,52.83
2018-12-23T00:50:28.461Z,52.94
2018-12-23T00:51:00.063Z,52.80
2018-12-23T00:51:31.678Z,52.89
2018-12-23T00:52:03.296Z,53.08
2018-12-23T00:52:34.899Z,52.97
2018-12-23T00:53:06.480Z,53.12
2018-12-23T00:53:38.088Z,53.24
2018-12-23T00:54:09.691Z,53.36
2018-12-23T00:54:41.313Z,53.18
2018-12-23T00:55:12.906Z,53.26
2018-12-23T00:55:44.562Z,53.22
2018-12-23T00:56:16.153Z,53.17
2018-12-23T00:56:47.760Z,53.17
2018-12-23T00:57:19.492Z,53.32
2018-12-23T00:57:51.006Z,53.17
2018-12-23T00:58:22.616Z,53.33
2018-12-23T00:58:54.209Z,53.27
2018-12-23T00:59:25.806Z,53.37
2018-12-23T00:59:57.398Z,53.27
2018-12-23T01:00:29.016Z,53.34
2018-12-23T01:01:00.620Z,53.20
2018-12-23T01:01:32.235Z,53.35
2018-12-23T01:02:03.829Z,53.28
2018-12-23T01:02:35.432Z,53.48
2018-12-23T01:03:07.048Z,53.32
2018-12-23T01:03:38.642Z,53.35
2018-12-23T01:04:10.241Z,53.46
2018-12-23T01:04:41.834Z,53.25
2018-12-23T01:05:13.430Z,53.33
2018-12-23T01:05:45.029Z,53.37
2018-12-23T01:06:16.613Z,53.38
2018-12-23T01:06:48.198Z,53.36
2018-12-23T01:07:19.800Z,53.44
2018-12-23T01:07:51.391Z,53.38
2018-12-23T01:08:22.978Z,53.38
2018-12-23T01:08:54.584Z,53.31
2018-12-23T01:09:26.189Z,53.47
2018-12-23T01:09:57.800Z,53.34
2018-12-23T01:10:29.409Z,53.35
2018-12-23T01:11:01.020Z,53.38
2018-12-23T01:11:32.619Z,53.43
2018-12-23T01:12:04.215Z,53.50
2018-12-23T01:12:35.819Z,53.37
2018-12-23T01:13:07.415Z,53.36
2018-12-23T01:13:39.009Z,53.48
2018-12-23T01:14:10.601Z,53.52
2018-12-23T01:14:42.232Z,53.52
2018-12-23T01:15:13.869Z,53.41
2018-12-23T01:15:45.474Z,53.49
2018-12-23T01:16:17.067Z,53.50
2018-12-23T01:16:48.675Z,53.53
2018-12-23T01:17:20.311Z,53.50
2018-12-23T01:17:51.902Z,53.59
2018-12-23T01:18:23.494Z,53.50
2018-12-23T01:18:55.096Z,53.51
2018-12-23T01:19:26.701Z,53.54
2018-12-23T01:19:58.336Z,53.52
2018-12-23T01:20:29.940Z,53.46
2018-12-23T01:21:01.552Z,53.55
2018-12-23T01:21:33.146Z,53.49
2018-12-23T01:22:04.797Z,53.50
2018-12-23T01:22:36.380Z,53.52
2018-12-23T01:23:07.974Z,53.60
2018-12-23T01:23:39.561Z,53.49
2018-12-23T01:24:11.161Z,53.55
2018-12-23T01:24:42.757Z,53.54
2018-12-23T01:25:14.378Z,53.63
2018-12-23T01:25:45.970Z,53.47
2018-12-23T01:26:17.575Z,53.63
2018-12-23T01:26:49.160Z,53.62
2018-12-23T01:27:20.754Z,53.62
2018-12-23T01:27:52.367Z,53.61
2018-12-23T01:28:23.968Z,53.59
2018-12-23T01:28:55.566Z,53.49
2018-12-23T01:29:27.163Z,53.46
2018-12-23T01:29:58.797Z,53.64
2018-12-23T01:30:30.409Z,53.55
2018-12-23T01:31:02.015Z,53.46
2018-12-23T01:31:33.610Z,53.45
2018-12-23T01:32:05.218Z,53.52
2018-12-23T01:32:36.828Z,53.66
2018-12-23T01:33:08.436Z,53.56
2018-12-23T01:33:40.045Z,53.51
2018-12-23T01:34:11.646Z,53.44
2018-12-23T01:34:43.241Z,53.49
2018-12-23T01:35:14.871Z,53.45
2018-12-23T01:35:46.470Z,53.45
2018-12-23T01:36:18.066Z,53.47
2018-12-23T01:36:49.672Z,53.55
2018-12-23T01:37:21.281Z,53.57
2018-12-23T01:37:52.881Z,53.52
2018-12-23T01:38:24.488Z,53.61
2018-12-23T01:38:56.081Z,53.57
2018-12-23T01:39:27.664Z,53.62
2018-12-23T01:39:59.258Z,53.59
2018-12-23T01:40:30.878Z,53.61
2018-12-23T01:41:04.395Z,53.55
2018-12-23T01:41:34.117Z,53.77
2018-12-23T01:42:05.714Z,53.76
2018-12-23T01:42:37.312Z,53.55
2018-12-23T01:43:08.905Z,53.63
2018-12-23T01:43:40.491Z,53.56
2018-12-23T01:44:12.104Z,53.68
2018-12-23T01:44:43.743Z,53.61
2018-12-23T01:45:15.363Z,53.61
2018-12-23T01:45:46.957Z,53.59
2018-12-23T01:46:18.559Z,53.51
2018-12-23T01:46:50.159Z,53.59
2018-12-23T01:47:21.768Z,53.61
2018-12-23T01:47:53.361Z,53.67
2018-12-23T01:48:24.972Z,53.61
2018-12-23T01:48:56.575Z,53.56
2018-12-23T01:49:28.173Z,53.67
2018-12-23T01:49:59.769Z,53.68
2018-12-23T01:50:31.404Z,53.68
2018-12-23T01:51:03.001Z,53.72
2018-12-23T01:51:34.609Z,53.74
2018-12-23T01:52:06.214Z,53.74
2018-12-23T01:52:37.820Z,53.56
2018-12-23T01:53:09.428Z,53.69
2018-12-23T01:53:41.044Z,53.55
2018-12-23T01:54:12.647Z,53.50
2018-12-23T01:54:44.241Z,53.56
2018-12-23T01:55:15.861Z,53.66
2018-12-23T01:55:47.468Z,53.56
2018-12-23T01:56:19.093Z,53.64
2018-12-23T01:56:50.672Z,53.67
2018-12-23T01:57:22.283Z,53.66
2018-12-23T01:57:53.888Z,53.84
2018-12-23T01:58:25.481Z,53.80
2018-12-23T01:58:57.088Z,53.89
2018-12-23T01:59:28.684Z,53.94
2018-12-23T02:00:00.273Z,53.88
2018-12-23T02:00:31.908Z,53.85
2018-12-23T02:01:03.523Z,54.16
2018-12-23T02:01:35.124Z,53.98
2018-12-23T02:02:06.723Z,54.00
2018-12-23T02:02:38.313Z,53.84
2018-12-23T02:03:09.910Z,53.82
2018-12-23T02:03:41.510Z,53.97
2018-12-23T02:04:13.102Z,53.90
2018-12-23T02:04:44.694Z,53.70
2018-12-23T02:05:16.313Z,53.54
2018-12-23T02:05:47.930Z,53.55
2018-12-23T02:06:19.537Z,53.60
2018-12-23T02:06:51.136Z,52.40
2018-12-23T02:07:22.748Z,52.00
2018-12-23T02:07:54.343Z,51.87
2018-12-23T02:08:25.934Z,51.70
2018-12-23T02:08:57.526Z,51.78
2018-12-23T02:09:29.117Z,51.76
2018-12-23T02:10:00.728Z,51.74
2018-12-23T02:10:32.351Z,51.90
2018-12-23T02:11:03.936Z,51.98
2018-12-23T02:11:35.530Z,51.96
2018-12-23T02:12:07.148Z,52.16
2018-12-23T02:12:38.752Z,52.14
2018-12-23T02:13:10.345Z,52.12
2018-12-23T02:13:41.945Z,52.11
2018-12-23T02:14:13.529Z,52.12
2018-12-23T02:14:45.121Z,52.23
2018-12-23T02:15:16.732Z,52.25
2018-12-23T02:15:48.368Z,52.27
2018-12-23T02:16:19.962Z,52.25
2018-12-23T02:16:51.548Z,52.30
2018-12-23T02:17:23.150Z,52.71
2018-12-23T02:17:54.741Z,52.48
2018-12-23T02:18:26.352Z,52.53
2018-12-23T02:18:57.945Z,52.48
2018-12-23T02:19:29.542Z,52.51
2018-12-23T02:20:01.133Z,52.77
2018-12-23T02:20:32.765Z,52.67
2018-12-23T02:21:04.376Z,52.78
2018-12-23T02:21:35.988Z,52.71
2018-12-23T02:22:07.600Z,52.83
2018-12-23T02:22:39.198Z,52.93
2018-12-23T02:23:10.789Z,52.97
2018-12-23T02:23:42.397Z,52.97
2018-12-23T02:24:13.994Z,53.00
2018-12-23T02:24:45.603Z,53.08
2018-12-23T02:25:17.195Z,53.13
2018-12-23T02:25:48.804Z,53.00
2018-12-23T02:26:20.394Z,53.08
2018-12-23T02:26:51.985Z,53.20
2018-12-23T02:27:23.563Z,53.23
2018-12-23T02:27:55.171Z,53.21
2018-12-23T02:28:26.780Z,53.25
2018-12-23T02:28:58.387Z,53.31
2018-12-23T02:29:29.982Z,53.37
2018-12-23T02:30:01.579Z,53.38
2018-12-23T02:30:33.205Z,53.39
2018-12-23T02:31:04.826Z,53.42
2018-12-23T02:31:36.408Z,53.56
2018-12-23T02:32:08.002Z,53.54
2018-12-23T02:32:39.593Z,53.42
2018-12-23T02:33:11.195Z,53.44
2018-12-23T02:33:42.791Z,53.60
2018-12-23T02:34:14.391Z,53.66
2018-12-23T02:34:45.994Z,53.62
2018-12-23T02:35:17.594Z,53.60
2018-12-23T02:35:55.559Z,53.75
2018-12-23T02:36:20.879Z,53.66
2018-12-23T02:36:52.481Z,53.91
2018-12-23T02:37:24.074Z,54.18
2018-12-23T02:37:55.684Z,54.06
2018-12-23T02:38:27.289Z,54.15
2018-12-23T02:38:58.872Z,53.99
2018-12-23T02:39:30.466Z,54.15
2018-12-23T02:40:02.076Z,54.25
2018-12-23T02:40:33.676Z,54.30
2018-12-23T02:41:05.298Z,54.37
2018-12-23T02:41:36.898Z,54.42
2018-12-23T02:42:08.489Z,54.68
2018-12-23T02:42:40.085Z,54.46
2018-12-23T02:43:11.687Z,54.75
2018-12-23T02:43:43.296Z,54.50
2018-12-23T02:44:14.894Z,54.50
2018-12-23T02:44:46.516Z,54.54
2018-12-23T02:45:18.149Z,54.63
2018-12-23T02:45:49.778Z,54.65
2018-12-23T02:46:21.373Z,54.56
2018-12-23T02:46:52.971Z,54.59
2018-12-23T02:47:24.568Z,54.76
2018-12-23T02:47:56.149Z,54.73
2018-12-23T02:48:27.759Z,54.58
2018-12-23T02:48:59.364Z,54.69
2018-12-23T02:49:30.961Z,54.96
2018-12-23T02:50:02.561Z,54.99
2018-12-23T02:50:34.167Z,54.61
2018-12-23T02:51:05.800Z,54.74
2018-12-23T02:51:37.384Z,54.50
2018-12-23T02:52:08.982Z,54.49
2018-12-23T02:52:40.574Z,54.46
2018-12-23T02:53:12.166Z,54.54
2018-12-23T02:53:43.758Z,54.32
2018-12-23T02:54:15.379Z,54.39
2018-12-23T02:54:46.977Z,54.40
2018-12-23T02:55:18.599Z,54.46
2018-12-23T02:55:50.222Z,54.48
2018-12-23T02:56:21.818Z,54.44
2018-12-23T02:56:53.413Z,54.49
2018-12-23T02:57:24.996Z,54.40
2018-12-23T02:57:56.577Z,54.40
2018-12-23T02:58:28.174Z,54.41
2018-12-23T02:58:59.769Z,54.33
2018-12-23T02:59:31.362Z,54.41
2018-12-23T03:00:02.953Z,54.36
2018-12-23T03:00:34.539Z,54.49
2018-12-23T03:01:06.141Z,54.38
2018-12-23T03:01:37.733Z,54.44
2018-12-23T03:02:09.347Z,54.41
2018-12-23T03:02:40.943Z,54.42
2018-12-23T03:03:12.533Z,54.41
2018-12-23T03:03:44.133Z,54.42
2018-12-23T03:04:15.741Z,54.27
2018-12-23T03:04:47.333Z,54.58
2018-12-23T03:05:18.926Z,54.66
2018-12-23T03:05:50.508Z,54.61
2018-12-23T03:06:22.104Z,54.70
2018-12-23T03:06:53.711Z,54.64
2018-12-23T03:07:25.295Z,54.56
2018-12-23T03:07:56.890Z,54.67
2018-12-23T03:08:28.486Z,54.75
2018-12-23T03:09:00.079Z,54.62
2018-12-23T03:09:31.660Z,54.62
2018-12-23T03:10:03.249Z,54.53
2018-12-23T03:10:34.841Z,54.61
2018-12-23T03:11:06.476Z,54.53
2018-12-23T03:11:38.081Z,54.55
2018-12-23T03:12:09.677Z,54.49
2018-12-23T03:12:41.269Z,54.44
2018-12-23T03:13:12.878Z,54.53
2018-12-23T03:13:44.492Z,54.49
2018-12-23T03:14:16.107Z,54.48
2018-12-23T03:14:47.728Z,54.39
2018-12-23T03:15:19.331Z,54.41
2018-12-23T03:15:50.930Z,54.47
2018-12-23T03:16:22.572Z,54.49
2018-12-23T03:16:54.189Z,54.40
2018-12-23T03:17:25.788Z,54.48
2018-12-23T03:17:57.373Z,54.40
2018-12-23T03:18:28.969Z,54.53
2018-12-23T03:19:00.578Z,54.47
2018-12-23T03:19:32.160Z,54.40
2018-12-23T03:20:03.754Z,54.36
2018-12-23T03:20:35.365Z,54.45
2018-12-23T03:21:06.976Z,54.55
2018-12-23T03:21:38.588Z,54.48
2018-12-23T03:22:10.182Z,54.33
2018-12-23T03:22:41.787Z,54.38
2018-12-23T03:23:13.404Z,54.45
2018-12-23T03:23:44.989Z,54.57
2018-12-23T03:24:16.586Z,54.45
2018-12-23T03:24:48.197Z,54.55
2018-12-23T03:25:19.810Z,54.42
2018-12-23T03:25:51.409Z,54.43
2018-12-23T03:26:23.040Z,54.43
2018-12-23T03:26:54.652Z,54.49
2018-12-23T03:27:26.246Z,54.39
2018-12-23T03:27:57.837Z,54.43
2018-12-23T03:28:29.448Z,54.49
2018-12-23T03:29:01.037Z,54.44
2018-12-23T03:29:32.634Z,54.48
2018-12-23T03:30:04.245Z,54.53
2018-12-23T03:30:35.846Z,54.50
2018-12-23T03:31:07.481Z,54.54
2018-12-23T03:31:39.089Z,54.48
2018-12-23T03:32:10.689Z,54.57
2018-12-23T03:32:42.279Z,54.48
2018-12-23T03:33:13.879Z,54.54
2018-12-23T03:33:45.500Z,54.45
2018-12-23T03:34:17.105Z,54.54
2018-12-23T03:34:48.710Z,54.56
2018-12-23T03:35:20.303Z,54.58
2018-12-23T03:35:51.902Z,54.65
2018-12-23T03:36:23.521Z,54.71
2018-12-23T03:36:55.128Z,54.52
2018-12-23T03:37:26.721Z,54.63
2018-12-23T03:37:58.314Z,54.57
2018-12-23T03:38:29.892Z,54.52
2018-12-23T03:39:01.491Z,54.56
2018-12-23T03:39:33.132Z,54.54
2018-12-23T03:40:04.735Z,54.55
2018-12-23T03:40:36.334Z,54.55
2018-12-23T03:41:07.991Z,54.59
2018-12-23T03:41:39.591Z,54.63
2018-12-23T03:42:11.207Z,54.63
2018-12-23T03:42:42.802Z,54.54
2018-12-23T03:43:14.404Z,54.54
2018-12-23T03:43:46.016Z,54.54
2018-12-23T03:44:17.612Z,54.55
2018-12-23T03:44:49.214Z,54.55
2018-12-23T03:45:20.819Z,54.73
2018-12-23T03:45:52.417Z,54.55
2018-12-23T03:46:24.046Z,54.69
2018-12-23T03:46:55.641Z,54.58
2018-12-23T03:47:27.245Z,54.61
2018-12-23T03:47:58.842Z,54.50
2018-12-23T03:48:30.449Z,54.47
2018-12-23T03:49:02.060Z,54.50
2018-12-23T03:49:33.659Z,54.57
2018-12-23T03:50:05.253Z,54.60
2018-12-23T03:50:36.842Z,54.60
2018-12-23T03:51:08.445Z,54.57
2018-12-23T03:51:40.088Z,54.60
2018-12-23T03:52:11.686Z,54.57
2018-12-23T03:52:43.291Z,54.61
2018-12-23T03:53:14.903Z,54.70
2018-12-23T03:53:46.515Z,54.69
2018-12-23T03:54:18.109Z,54.59
2018-12-23T03:54:49.702Z,54.58
2018-12-23T03:55:21.320Z,54.62
2018-12-23T03:55:52.928Z,54.75
2018-12-23T03:56:24.550Z,54.79
2018-12-23T03:56:56.181Z,54.71
2018-12-23T03:57:27.769Z,54.75
2018-12-23T03:57:59.384Z,54.74
2018-12-23T03:58:30.992Z,54.76
2018-12-23T03:59:02.603Z,54.87
2018-12-23T03:59:34.204Z,54.95
2018-12-23T04:00:05.811Z,55.00
2018-12-23T04:00:37.411Z,54.87
2018-12-23T04:01:09.002Z,54.87
2018-12-23T04:01:40.622Z,54.91
2018-12-23T04:02:12.225Z,54.83
2018-12-23T04:02:43.810Z,54.89
2018-12-23T04:03:15.406Z,55.17
2018-12-23T04:03:46.997Z,54.80
2018-12-23T04:04:18.588Z,54.90
2018-12-23T04:04:50.169Z,55.11
2018-12-23T04:05:21.784Z,54.80
2018-12-23T04:05:53.377Z,54.89
2018-12-23T04:06:25.177Z,54.97
2018-12-23T04:06:56.691Z,55.04
2018-12-23T04:07:28.293Z,54.98
2018-12-23T04:07:59.886Z,55.03
2018-12-23T04:08:31.487Z,54.98
2018-12-23T04:09:03.086Z,54.91
2018-12-23T04:09:34.683Z,54.84
2018-12-23T04:10:06.269Z,55.09
2018-12-23T04:10:37.854Z,55.09
2018-12-23T04:11:09.442Z,54.94
2018-12-23T04:11:41.100Z,54.86
2018-12-23T04:12:12.712Z,55.01
2018-12-23T04:12:44.297Z,54.86
2018-12-23T04:13:15.890Z,54.87
2018-12-23T04:13:47.488Z,55.10
2018-12-23T04:14:19.104Z,55.00
2018-12-23T04:14:50.711Z,54.94
2018-12-23T04:15:22.322Z,54.99
2018-12-23T04:15:53.922Z,54.93
2018-12-23T04:16:25.513Z,54.96
2018-12-23T04:16:57.137Z,54.94
2018-12-23T04:17:28.743Z,55.08
2018-12-23T04:18:00.328Z,54.98
2018-12-23T04:18:31.912Z,54.97
2018-12-23T04:19:03.515Z,54.84
2018-12-23T04:19:35.124Z,55.06
2018-12-23T04:20:06.723Z,55.00
2018-12-23T04:20:38.313Z,54.92
2018-12-23T04:21:09.904Z,54.92
2018-12-23T04:21:41.522Z,55.02
2018-12-23T04:22:13.157Z,54.95
2018-12-23T04:22:44.772Z,54.95
2018-12-23T04:23:16.366Z,54.81
2018-12-23T04:23:47.976Z,54.85
2018-12-23T04:24:19.640Z,55.10
2018-12-23T04:24:51.227Z,55.09
2018-12-23T04:25:22.836Z,54.96
2018-12-23T04:25:54.446Z,54.78
2018-12-23T04:26:26.047Z,54.81
2018-12-23T04:26:57.672Z,54.79
2018-12-23T04:27:29.266Z,54.83
2018-12-23T04:28:00.875Z,54.82
2018-12-23T04:28:32.465Z,54.79
2018-12-23T04:29:04.062Z,54.98
2018-12-23T04:29:35.663Z,54.79
2018-12-23T04:30:07.249Z,54.92
2018-12-23T04:30:38.841Z,54.79
2018-12-23T04:31:10.437Z,54.92
2018-12-23T04:31:42.045Z,54.88
2018-12-23T04:32:13.662Z,54.96
2018-12-23T04:32:45.268Z,54.83
2018-12-23T04:33:16.868Z,54.82
2018-12-23T04:33:48.460Z,54.74
2018-12-23T04:34:20.063Z,54.92
2018-12-23T04:34:51.658Z,54.89
2018-12-23T04:35:23.251Z,54.90
2018-12-23T04:35:54.849Z,55.03
2018-12-23T04:36:34.082Z,55.03
2018-12-23T04:36:58.133Z,54.89
2018-12-23T04:37:29.737Z,55.06
2018-12-23T04:38:01.331Z,54.95
2018-12-23T04:38:32.940Z,55.03
2018-12-23T04:39:04.534Z,54.93
2018-12-23T04:39:36.140Z,54.94
2018-12-23T04:40:07.723Z,55.06
2018-12-23T04:40:39.303Z,54.98
2018-12-23T04:41:10.902Z,55.07
2018-12-23T04:41:42.512Z,55.10
2018-12-23T04:42:14.150Z,54.96
2018-12-23T04:42:45.746Z,54.93
2018-12-23T04:43:17.348Z,54.91
2018-12-23T04:43:48.930Z,54.99
2018-12-23T04:44:20.536Z,55.08
2018-12-23T04:44:52.136Z,54.98
2018-12-23T04:45:23.726Z,55.00
2018-12-23T04:45:55.326Z,55.02
2018-12-23T04:46:26.933Z,54.89
2018-12-23T04:46:58.534Z,55.15
2018-12-23T04:47:30.270Z,55.09
2018-12-23T04:48:01.832Z,54.92
2018-12-23T04:48:33.416Z,55.02
2018-12-23T04:49:05.015Z,54.96
2018-12-23T04:49:36.609Z,55.01
2018-12-23T04:50:08.216Z,54.98
2018-12-23T04:50:39.809Z,55.02
2018-12-23T04:51:11.403Z,54.87
2018-12-23T04:51:42.998Z,55.05
2018-12-23T04:52:14.623Z,55.19
2018-12-23T04:52:46.222Z,55.23
2018-12-23T04:53:17.814Z,55.08
2018-12-23T04:53:49.424Z,55.21
2018-12-23T04:54:21.022Z,55.13
2018-12-23T04:54:52.600Z,55.13
2018-12-23T04:55:25.430Z,55.28
2018-12-23T04:55:55.834Z,55.20
2018-12-23T04:56:27.429Z,55.26
2018-12-23T04:56:59.032Z,55.41
2018-12-23T04:57:30.635Z,55.22
2018-12-23T04:58:02.254Z,55.14
2018-12-23T04:58:33.880Z,55.32
2018-12-23T04:59:05.488Z,55.28
2018-12-23T04:59:37.082Z,55.19
2018-12-23T05:00:08.683Z,55.25
2018-12-23T05:00:40.279Z,55.34
2018-12-23T05:01:11.873Z,55.23
2018-12-23T05:01:43.466Z,55.27
2018-12-23T05:02:15.069Z,55.22
2018-12-23T05:02:46.663Z,55.36
2018-12-23T05:03:18.274Z,55.18
2018-12-23T05:03:49.884Z,55.20
2018-12-23T05:04:21.478Z,55.35
2018-12-23T05:04:53.081Z,55.35
2018-12-23T05:05:24.673Z,55.34
2018-12-23T05:05:56.281Z,55.26
2018-12-23T05:06:27.873Z,55.32
2018-12-23T05:06:59.484Z,55.44
2018-12-23T05:07:31.092Z,55.41
2018-12-23T05:08:02.699Z,55.42
2018-12-23T05:08:34.311Z,55.36
2018-12-23T05:09:06.138Z,55.43
2018-12-23T05:09:37.744Z,55.35
2018-12-23T05:10:09.364Z,55.32
2018-12-23T05:10:40.962Z,55.46
2018-12-23T05:11:12.574Z,55.60
2018-12-23T05:11:44.170Z,55.41
2018-12-23T05:12:15.763Z,55.48
2018-12-23T05:12:47.372Z,55.51
2018-12-23T05:13:18.956Z,55.44
2018-12-23T05:13:50.554Z,55.45
2018-12-23T05:14:22.160Z,55.47
2018-12-23T05:14:53.764Z,55.43
2018-12-23T05:15:25.367Z,55.38
2018-12-23T05:15:56.962Z,55.33
2018-12-23T05:16:28.548Z,55.35
2018-12-23T05:17:00.138Z,55.42
2018-12-23T05:17:31.759Z,55.42
2018-12-23T05:18:03.357Z,55.41
2018-12-23T05:18:34.951Z,55.50
2018-12-23T05:19:06.557Z,55.39
2018-12-23T05:19:38.144Z,55.45
2018-12-23T05:20:09.870Z,55.33
2018-12-23T05:20:41.433Z,55.40
2018-12-23T05:21:13.039Z,55.34
2018-12-23T05:21:44.649Z,55.42
2018-12-23T05:22:16.251Z,55.33
2018-12-23T05:22:47.963Z,55.36
2018-12-23T05:23:19.552Z,55.46
2018-12-23T05:23:51.145Z,55.45
2018-12-23T05:24:22.757Z,55.35
2018-12-23T05:24:54.363Z,55.42
2018-12-23T05:25:25.967Z,55.37
2018-12-23T05:25:57.571Z,55.43
2018-12-23T05:26:29.160Z,55.41
2018-12-23T05:27:00.754Z,55.45
2018-12-23T05:27:32.366Z,55.52
2018-12-23T05:28:03.995Z,55.44
2018-12-23T05:28:35.601Z,55.45
2018-12-23T05:29:07.221Z,55.42
2018-12-23T05:29:38.817Z,55.50
2018-12-23T05:30:10.414Z,55.53
2018-12-23T05:30:42.005Z,55.52
2018-12-23T05:31:13.599Z,55.51
2018-12-23T05:31:45.197Z,55.65
2018-12-23T05:32:16.791Z,55.57
2018-12-23T05:32:48.426Z,55.64
2018-12-23T05:33:20.013Z,55.61
2018-12-23T05:33:51.616Z,55.70
2018-12-23T05:34:23.224Z,55.51
2018-12-23T05:34:54.817Z,55.69
2018-12-23T05:35:26.409Z,55.81
2018-12-23T05:35:58.002Z,55.88
2018-12-23T05:36:29.608Z,55.58
2018-12-23T05:37:01.312Z,55.54
2018-12-23T05:37:32.905Z,55.88
2018-12-23T05:38:04.527Z,55.78
2018-12-23T05:38:36.122Z,55.58
2018-12-23T05:39:07.719Z,55.80
2018-12-23T05:39:39.316Z,55.70
2018-12-23T05:40:10.919Z,55.72
2018-12-23T05:40:42.535Z,55.74
2018-12-23T05:41:14.144Z,55.77
2018-12-23T05:41:45.742Z,55.69
2018-12-23T05:42:17.334Z,55.63
2018-12-23T05:42:48.974Z,56.01
2018-12-23T05:43:20.571Z,55.83
2018-12-23T05:43:52.185Z,55.98
2018-12-23T05:44:23.778Z,55.91
2018-12-23T05:44:55.376Z,55.90
2018-12-23T05:45:26.969Z,55.94
2018-12-23T05:45:58.568Z,56.05
2018-12-23T05:46:30.178Z,55.89
2018-12-23T05:47:01.775Z,55.90
2018-12-23T05:47:33.374Z,55.84
2018-12-23T05:48:04.994Z,55.89
2018-12-23T05:48:36.932Z,55.88
2018-12-23T05:49:08.525Z,55.97
2018-12-23T05:49:40.127Z,56.14
2018-12-23T05:50:11.714Z,55.97
2018-12-23T05:50:43.303Z,55.97
2018-12-23T05:51:14.885Z,56.05
2018-12-23T05:51:46.545Z,56.05
2018-12-23T05:52:18.120Z,56.18
2018-12-23T05:52:49.757Z,55.95
2018-12-23T05:53:21.364Z,56.07
2018-12-23T05:53:52.957Z,56.07
2018-12-23T05:54:24.549Z,56.05
2018-12-23T05:54:56.146Z,56.15
2018-12-23T05:55:27.742Z,56.16
2018-12-23T05:55:59.347Z,55.99
2018-12-23T05:56:30.956Z,56.02
2018-12-23T05:57:02.564Z,56.13
2018-12-23T05:57:34.163Z,56.25
2018-12-23T05:58:05.804Z,56.16
2018-12-23T05:58:37.407Z,55.97
2018-12-23T05:59:09.016Z,56.06
2018-12-23T05:59:40.619Z,56.14
2018-12-23T06:00:12.218Z,56.08
2018-12-23T06:00:43.814Z,56.09
2018-12-23T06:01:15.410Z,56.13
2018-12-23T06:01:48.543Z,56.10
2018-12-23T06:02:27.536Z,55.95
2018-12-23T06:02:59.675Z,55.95
2018-12-23T06:03:34.684Z,55.95
2018-12-23T06:04:06.296Z,56.09
2018-12-23T06:04:37.913Z,56.13
2018-12-23T06:05:09.516Z,56.19
2018-12-23T06:05:41.124Z,56.19
2018-12-23T06:06:12.732Z,56.14
2018-12-23T06:06:44.328Z,56.21
2018-12-23T06:07:15.922Z,56.27
2018-12-23T06:07:47.528Z,56.16
2018-12-23T06:08:19.164Z,56.22
2018-12-23T06:08:50.767Z,56.20
2018-12-23T06:09:22.377Z,56.23
2018-12-23T06:09:53.973Z,56.34
2018-12-23T06:10:25.575Z,56.14
2018-12-23T06:10:57.188Z,56.11
2018-12-23T06:11:28.772Z,56.05
2018-12-23T06:12:00.375Z,56.12
2018-12-23T06:12:31.969Z,56.01
2018-12-23T06:13:03.740Z,56.07
2018-12-23T06:13:35.346Z,56.03
2018-12-23T06:14:06.956Z,56.06
2018-12-23T06:14:38.553Z,56.11
2018-12-23T06:15:10.150Z,56.11
2018-12-23T06:15:41.750Z,56.18
2018-12-23T06:16:13.359Z,56.09
2018-12-23T06:16:44.969Z,56.21
2018-12-23T06:17:16.579Z,56.20
2018-12-23T06:17:48.190Z,56.19
2018-12-23T06:18:19.811Z,56.09
2018-12-23T06:18:51.409Z,56.28
2018-12-23T06:19:23.002Z,56.25
2018-12-23T06:19:54.598Z,56.10
2018-12-23T06:20:26.198Z,56.11
2018-12-23T06:20:57.859Z,56.09
2018-12-23T06:21:29.862Z,56.25
2018-12-23T06:22:01.472Z,56.05
2018-12-23T06:22:33.160Z,56.02
2018-12-23T06:23:04.772Z,55.95
2018-12-23T06:23:36.384Z,56.10
2018-12-23T06:24:07.988Z,56.13
2018-12-23T06:24:45.801Z,56.09
2018-12-23T06:25:17.424Z,56.14
2018-12-23T06:25:49.013Z,56.17
2018-12-23T06:26:20.623Z,56.22
2018-12-23T06:26:52.226Z,56.08
2018-12-23T06:27:23.817Z,56.13
2018-12-23T06:27:55.421Z,56.25
2018-12-23T06:28:27.042Z,56.31
2018-12-23T06:28:58.652Z,56.17
2018-12-23T06:29:30.259Z,56.37
2018-12-23T06:30:01.874Z,56.29
2018-12-23T06:30:33.477Z,56.34
2018-12-23T06:31:05.080Z,56.27
2018-12-23T06:31:36.698Z,56.31
2018-12-23T06:32:08.298Z,56.07
2018-12-23T06:32:39.894Z,56.16
2018-12-23T06:33:11.504Z,56.23
2018-12-23T06:33:43.136Z,56.20
2018-12-23T06:34:14.733Z,56.11
2018-12-23T06:34:46.316Z,55.98
2018-12-23T06:35:17.913Z,55.92
2018-12-23T06:35:49.526Z,56.13
2018-12-23T06:36:21.122Z,56.17
2018-12-23T06:36:52.714Z,55.93
2018-12-23T06:37:24.306Z,56.06
2018-12-23T06:37:55.902Z,56.02
2018-12-23T06:38:27.536Z,56.10
2018-12-23T06:38:59.133Z,56.24
2018-12-23T06:39:30.719Z,56.25
2018-12-23T06:40:02.328Z,56.19
2018-12-23T06:40:33.921Z,56.19
2018-12-23T06:41:05.504Z,56.29
2018-12-23T06:41:37.191Z,56.35
2018-12-23T06:42:08.786Z,56.29
2018-12-23T06:42:40.400Z,56.25
2018-12-23T06:43:11.995Z,56.38
2018-12-23T06:43:43.650Z,56.34
2018-12-23T06:44:15.246Z,56.29
2018-12-23T06:44:46.852Z,56.35
2018-12-23T06:45:18.455Z,56.63
2018-12-23T06:45:50.056Z,56.47
2018-12-23T06:46:21.653Z,56.49
2018-12-23T06:46:53.252Z,56.64
2018-12-23T06:47:24.863Z,56.37